Time;durP1;ratioP1;P1;durP2;ratioP2;P2;SDS_P1;SDS_P2;PMS_P1;PMS_P2;Temp;Humidity;BMP_temperature;BMP_pressure;BME280_temperature;BME280_humidity;BME280_pressure;Samples;Min_cycle;Max_cycle;Signal;HPM_P1;HPM_P2
2022/02/09 04:36:11;;;;;;;7.67;3.67;;;;;;;11.79;58.58;100082.50;6836653;29;20206;-85
2022/02/09 04:39:43;;;;;;;5.37;3.17;;;;;;;11.73;58.45;100067.03;6846614;28;20692;-84
2022/02/09 04:43:24;;;;;;;6.17;3.23;;;;;;;11.78;58.03;100074.59;6837977;28;20384;-85
2022/02/09 04:50:26;;;;;;;5.20;3.50;;;;;;;11.92;58.13;100082.72;6838527;28;20206;-84
2022/02/09 04:57:36;;;;;;;7.47;4.97;;;;;;;11.54;58.92;100085.56;6836501;29;20210;-85
2022/02/09 05:01:03;;;;;;;5.17;4.30;;;;;;;11.89;58.43;100083.13;6837329;28;20225;-84
2022/02/09 05:04:46;;;;;;;7.10;3.50;;;;;;;11.87;58.70;100073.50;6842385;29;20193;-85
2022/02/09 05:23:19;;;;;;;8.63;4.33;;;;;;;12.19;57.23;100059.66;6866938;28;20248;-88
2022/02/09 05:26:49;;;;;;;7.10;4.40;;;;;;;11.84;57.55;100055.78;6861010;28;20650;-86
2022/02/09 05:30:11;;;;;;;6.83;3.87;;;;;;;11.59;57.93;100048.94;6859773;28;20198;-87
2022/02/09 05:33:33;;;;;;;6.43;4.10;;;;;;;11.74;57.73;100059.78;6845468;28;20202;-86
2022/02/09 05:36:56;;;;;;;4.57;3.67;;;;;;;11.20;60.44;100075.16;6862296;28;20216;-84
2022/02/09 05:40:17;;;;;;;5.63;3.80;;;;;;;11.67;58.80;100058.81;6870439;28;20271;-87
2022/02/09 05:43:40;;;;;;;7.63;5.27;;;;;;;12.05;57.96;100063.19;6871988;28;20609;-87
2022/02/09 05:50:46;;;;;;;7.53;4.80;;;;;;;11.54;58.28;100080.16;6851824;28;20225;-87
2022/02/09 05:54:23;;;;;;;8.53;4.60;;;;;;;11.87;57.81;100082.44;6869188;28;20196;-86
2022/02/09 05:57:49;;;;;;;8.20;4.60;;;;;;;11.74;57.68;100071.41;6868501;28;20221;-86
2022/02/09 06:01:12;;;;;;;8.67;4.50;;;;;;;12.01;57.01;100064.56;6866880;28;20272;-84
2022/02/09 06:04:38;;;;;;;8.67;4.53;;;;;;;11.54;56.63;100026.97;6867217;28;20209;-85
2022/02/09 06:07:59;;;;;;;5.67;4.10;;;;;;;11.83;57.02;100073.03;6861197;28;20201;-85
2022/02/09 06:11:27;;;;;;;6.30;4.10;;;;;;;11.94;56.86;100077.16;6867290;28;20272;-85
2022/02/09 06:15:14;;;;;;;8.33;4.50;;;;;;;11.68;56.02;100049.69;6862262;28;20197;-85
2022/02/09 06:22:16;;;;;;;8.27;5.27;;;;;;;11.33;57.74;100080.81;6872466;28;20221;-85
2022/02/09 06:25:38;;;;;;;7.53;4.33;;;;;;;12.11;56.12;100087.63;6859157;28;20246;-84
2022/02/09 06:28:59;;;;;;;8.53;4.10;;;;;;;12.34;54.91;100077.56;6869715;28;20205;-86
2022/02/09 06:32:21;;;;;;;6.63;4.10;;;;;;;12.17;55.14;100075.25;6866719;28;20233;-85
2022/02/09 06:35:44;;;;;;;6.50;5.00;;;;;;;12.31;54.80;100077.09;6859621;28;20238;-87
2022/02/09 06:39:07;;;;;;;14.27;6.17;;;;;;;12.42;54.81;100080.22;6840437;29;20210;-86
2022/02/09 06:42:31;;;;;;;11.57;6.43;;;;;;;12.33;54.33;100056.97;6853400;28;20589;-86
2022/02/09 06:45:52;;;;;;;9.00;4.77;;;;;;;12.44;53.96;100083.56;6865011;28;20320;-85
2022/02/09 06:49:16;;;;;;;6.47;3.60;;;;;;;12.21;54.43;100074.69;6869134;28;20236;-87
2022/02/09 06:52:44;;;;;;;8.27;3.73;;;;;;;12.18;53.82;100050.72;6867129;28;20786;-85
2022/02/09 06:56:05;;;;;;;5.53;3.67;;;;;;;12.39;53.01;100079.75;6864859;28;20229;-87
2022/02/09 06:59:30;;;;;;;5.80;3.90;;;;;;;12.25;52.28;100081.41;6865082;28;20220;-85
2022/02/09 07:02:52;;;;;;;6.23;4.03;;;;;;;12.30;52.39;100075.44;6843607;28;20319;-84
2022/02/09 07:06:14;;;;;;;7.20;4.40;;;;;;;12.41;51.79;100080.41;6838333;28;20244;-85
2022/02/09 07:09:36;;;;;;;7.50;4.50;;;;;;;12.34;52.07;100064.06;6842292;28;20212;-84
2022/02/09 07:12:58;;;;;;;6.17;4.10;;;;;;;12.50;51.97;100057.63;6841100;28;20260;-87
2022/02/09 07:16:21;;;;;;;6.57;4.43;;;;;;;12.12;52.29;100062.28;6836832;28;20229;-86
2022/02/09 07:19:49;;;;;;;7.03;4.17;;;;;;;12.47;51.19;100066.13;6842203;28;20572;-86
2022/02/09 07:23:20;;;;;;;6.83;4.17;;;;;;;12.65;50.86;100061.16;6835629;28;20233;-88
2022/02/09 07:26:51;;;;;;;8.77;5.53;;;;;;;12.74;50.71;100073.59;6836066;28;20189;-82
2022/02/09 07:30:13;;;;;;;15.53;7.70;;;;;;;12.67;50.34;100051.84;6839338;28;20205;-85
2022/02/09 07:33:35;;;;;;;12.67;4.47;;;;;;;11.78;50.83;100064.63;6836839;28;20203;-84
2022/02/09 07:36:57;;;;;;;8.97;4.70;;;;;;;11.39;52.21;100085.50;6839708;29;20248;-83
2022/02/09 07:40:19;;;;;;;6.80;4.10;;;;;;;11.41;52.19;100072.66;6840532;28;20213;-86
2022/02/09 07:43:48;;;;;;;7.97;4.40;;;;;;;11.62;51.86;100072.88;6839191;29;20287;-85
2022/02/09 07:47:32;;;;;;;8.20;4.13;;;;;;;10.49;52.71;100041.28;6837905;29;20194;-83
2022/02/09 07:51:14;;;;;;;5.37;3.70;;;;;;;10.90;53.28;100075.16;6839126;28;20237;-84
2022/02/09 07:54:35;;;;;;;6.83;3.80;;;;;;;11.51;50.86;100083.22;6839095;29;20582;-83
2022/02/09 07:57:58;;;;;;;6.33;3.90;;;;;;;12.04;49.12;100067.75;6839042;29;20225;-81
2022/02/09 08:01:22;;;;;;;6.73;4.03;;;;;;;12.08;49.15;100071.78;6837456;28;20225;-81
2022/02/09 08:04:43;;;;;;;7.27;4.30;;;;;;;11.33;49.21;100048.41;6836525;29;20214;-82
2022/02/09 08:08:06;;;;;;;6.40;3.67;;;;;;;11.66;49.11;100070.63;6837738;29;20261;-82
2022/02/09 08:11:33;;;;;;;6.53;3.67;;;;;;;11.69;49.22;100065.72;6836756;28;20229;-82
2022/02/09 08:26:42;;;;;;;6.13;4.20;;;;;;;12.61;48.12;100062.56;6862309;28;20196;-82
2022/02/09 08:30:18;;;;;;;6.27;3.43;;;;;;;13.07;47.04;100054.03;6862934;28;20296;-82
2022/02/09 08:33:39;;;;;;;7.60;3.40;;;;;;;13.03;47.45;100054.59;6850698;28;20670;-82
2022/02/09 08:37:03;;;;;;;6.13;3.43;;;;;;;13.21;45.79;100050.44;6844536;28;20225;-82
2022/02/09 08:40:25;;;;;;;4.77;3.77;;;;;;;14.44;44.70;100045.28;6864609;28;20209;-83
2022/02/09 08:43:47;;;;;;;8.47;3.90;;;;;;;17.64;37.69;100022.38;6863239;28;20205;-83
2022/02/09 08:47:08;;;;;;;6.90;3.97;;;;;;;19.98;32.80;100016.88;6862850;28;20203;-82
2022/02/09 08:50:30;;;;;;;6.60;3.20;;;;;;;20.37;31.87;100016.19;6868191;28;20732;-82
2022/02/09 08:53:53;;;;;;;4.50;3.20;;;;;;;20.50;31.65;100022.28;6866476;28;20207;-82
2022/02/09 08:57:14;;;;;;;4.53;3.00;;;;;;;21.89;29.27;100012.53;6868043;28;20320;-82
2022/02/09 09:00:38;;;;;;;5.20;3.07;;;;;;;23.01;27.56;100014.78;6867417;28;20236;-83
2022/02/09 09:04:03;;;;;;;7.30;3.73;;;;;;;21.80;29.14;100006.63;6867693;28;20217;-83
2022/02/09 09:07:31;;;;;;;5.70;3.20;;;;;;;23.19;27.30;99990.53;6868428;28;20190;-83
2022/02/09 10:02:52;;;;;;;5.60;3.00;;;;;;;15.80;41.37;99971.50;6803963;28;20227;-82
2022/02/09 10:32:51;;;;;;;6.20;2.97;;;;;;;16.91;39.83;99954.84;6841273;28;20652;-83
2022/02/09 10:36:15;;;;;;;4.93;2.57;;;;;;;18.01;38.62;99945.03;6836949;28;20288;-82
2022/02/09 10:39:47;;;;;;;4.07;2.50;;;;;;;17.90;37.82;99949.34;6840536;28;20723;-81
2022/02/09 10:43:21;;;;;;;5.07;2.40;;;;;;;17.33;39.10;99951.47;6841578;28;20643;-83
2022/02/09 10:46:47;;;;;;;3.83;2.43;;;;;;;17.02;39.81;99948.72;6844105;28;20190;-83
2022/02/09 10:50:11;;;;;;;3.47;2.77;;;;;;;17.00;40.29;99954.41;6845399;28;20938;-83
2022/02/09 10:53:33;;;;;;;5.63;2.80;;;;;;;17.06;41.13;99934.47;6844081;28;20212;-83
2022/02/09 10:56:57;;;;;;;3.67;2.70;;;;;;;16.51;41.45;99916.09;6844647;28;20233;-83
2022/02/09 11:00:19;;;;;;;6.50;3.00;;;;;;;16.91;39.74;99889.47;6843472;28;20217;-83
2022/02/09 11:03:41;;;;;;;5.87;2.50;;;;;;;16.57;41.40;99914.41;6844028;28;20235;-83
2022/02/09 11:07:03;;;;;;;5.03;3.30;;;;;;;16.41;40.86;99895.81;6844205;28;20212;-82
2022/02/09 11:10:25;;;;;;;4.47;2.70;;;;;;;16.69;41.14;99899.06;6844141;28;20214;-83
2022/02/09 11:13:49;;;;;;;5.80;3.07;;;;;;;16.96;41.40;99884.19;6843594;28;20214;-83
2022/02/09 11:17:11;;;;;;;4.80;2.70;;;;;;;17.88;39.78;99880.50;6844046;28;20237;-83
2022/02/09 11:21:08;;;;;;;3.67;2.77;;;;;;;18.34;38.14;99878.09;6844796;28;20277;-83
2022/02/09 11:24:31;;;;;;;4.30;2.37;;;;;;;18.13;39.26;99869.53;6843549;28;20207;-83
2022/02/09 11:28:16;;;;;;;5.43;2.73;;;;;;;18.11;38.75;99852.53;6839942;28;20461;-84
2022/02/09 11:32:15;;;;;;;4.27;2.57;;;;;;;18.18;38.80;99861.47;6842236;28;20247;-85
2022/02/09 11:35:42;;;;;;;4.33;2.43;;;;;;;18.76;36.73;99838.88;6838965;29;20201;-83
2022/02/09 11:39:11;;;;;;;3.00;2.60;;;;;;;18.53;37.08;99862.53;6859718;28;20230;-84
2022/02/09 11:42:41;;;;;;;4.83;2.67;;;;;;;19.13;35.46;99856.81;6844511;28;20225;-84
2022/02/09 11:46:21;;;;;;;11.67;2.87;;;;;;;19.16;35.56;99839.94;6843695;28;20197;-84
2022/02/09 11:57:11;;;;;;;9.83;4.27;;;;;;;19.16;35.30;99850.06;6851522;28;20233;-84
2022/02/09 12:01:14;;;;;;;4.23;2.57;;;;;;;18.33;36.46;99848.31;6842003;28;20222;-84
2022/02/09 12:08:57;;;;;;;3.83;2.30;;;;;;;16.88;39.42;99843.63;6862260;28;20243;-83
2022/02/09 12:12:22;;;;;;;4.07;2.50;;;;;;;18.38;36.53;99829.31;6852540;28;20232;-83
2022/02/09 12:16:02;;;;;;;3.83;2.60;;;;;;;17.94;37.52;99822.31;6850263;28;20200;-83
2022/02/09 12:19:32;;;;;;;5.13;2.87;;;;;;;17.38;38.17;99826.25;6843548;28;20214;-83
2022/02/09 12:23:07;;;;;;;5.43;2.80;;;;;;;17.47;37.98;99794.91;6848712;28;20633;-83
2022/02/09 12:26:30;;;;;;;4.87;2.93;;;;;;;18.61;36.27;99780.25;6860932;28;20193;-82
2022/02/09 12:29:59;;;;;;;3.87;2.07;;;;;;;18.89;36.55;99781.31;6855781;28;20284;-81
2022/02/09 12:33:21;;;;;;;2.77;2.40;;;;;;;19.57;34.81;99787.09;6866630;28;20240;-83
2022/02/09 12:36:47;;;;;;;4.60;2.50;;;;;;;18.39;36.66;99793.59;6843843;28;20224;-83
2022/02/09 12:40:11;;;;;;;4.33;2.20;;;;;;;18.90;36.08;99765.72;6847574;28;20205;-83
2022/02/09 12:43:46;;;;;;;2.33;2.10;;;;;;;18.68;36.73;99764.59;6857840;28;20209;-85
2022/02/09 12:47:08;;;;;;;4.10;2.37;;;;;;;18.80;36.45;99762.75;6864811;28;20205;-85
2022/02/09 12:50:38;;;;;;;4.53;2.53;;;;;;;18.64;35.80;99761.50;6860569;28;20595;-85
2022/02/09 12:54:01;;;;;;;2.47;2.27;;;;;;;18.97;36.12;99769.16;6857010;28;20229;-84
2022/02/09 12:57:34;;;;;;;3.20;2.30;;;;;;;19.66;34.80;99761.00;6856285;28;20221;-82
2022/02/09 13:00:57;;;;;;;4.70;2.47;;;;;;;18.51;35.53;99734.41;6859243;28;20221;-83
2022/02/09 13:04:33;;;;;;;6.73;2.53;;;;;;;19.09;34.97;99750.88;6845701;28;20220;-83
2022/02/09 13:07:56;;;;;;;2.27;2.00;;;;;;;19.56;34.71;99747.09;6842371;28;20214;-83
2022/02/09 13:11:21;;;;;;;5.27;2.43;;;;;;;19.91;33.96;99753.34;6841333;28;20226;-84
2022/02/09 13:14:47;;;;;;;3.77;2.50;;;;;;;19.80;33.85;99759.69;6841835;29;20218;-85
2022/02/09 13:18:34;;;;;;;3.07;2.50;;;;;;;20.30;33.25;99741.56;6851352;29;20304;-84
2022/02/09 13:26:29;;;;;;;2.77;2.00;;;;;;;20.07;33.95;99728.81;6868897;28;20217;-84
2022/02/09 14:11:36;;;;;;;5.10;2.90;;;;;;;20.16;33.46;99672.56;6815212;29;20713;-84
2022/02/09 14:48:17;;;;;;;5.70;2.50;;;;;;;19.86;35.32;99658.25;6860523;28;20208;-84
2022/02/09 14:52:01;;;;;;;2.27;2.07;;;;;;;19.65;35.71;99641.69;6864622;28;20228;-83
2022/02/09 14:55:33;;;;;;;2.50;1.73;;;;;;;19.48;34.99;99627.13;6845921;28;20200;-83
2022/02/09 14:59:01;;;;;;;3.20;2.20;;;;;;;19.66;35.10;99644.19;6838641;28;20364;-83
2022/02/09 15:02:38;;;;;;;3.67;2.33;;;;;;;19.17;35.82;99642.00;6847976;28;20240;-83
2022/02/09 15:09:45;;;;;;;2.40;1.70;;;;;;;18.63;36.52;99647.84;6839156;29;20233;-85
2022/02/09 15:13:24;;;;;;;3.13;1.90;;;;;;;18.45;36.28;99645.22;6839918;28;20233;-82
2022/02/09 15:16:55;;;;;;;2.70;1.83;;;;;;;19.25;36.09;99647.16;6839332;29;20194;-82
2022/02/09 15:24:07;;;;;;;3.83;2.00;;;;;;;19.48;35.50;99644.38;6828036;28;20225;-82
2022/02/09 15:27:28;;;;;;;3.93;2.30;;;;;;;19.49;34.76;99626.03;6862628;28;20213;-82
2022/02/09 15:31:01;;;;;;;3.73;2.03;;;;;;;19.62;35.10;99642.16;6862325;28;20251;-80
2022/02/09 15:34:27;;;;;;;2.20;2.00;;;;;;;19.13;36.03;99638.09;6840808;28;20268;-81
2022/02/09 15:37:57;;;;;;;1.63;1.50;;;;;;;19.24;35.76;99637.28;6837667;28;20230;-81
2022/02/09 15:41:25;;;;;;;1.50;1.40;;;;;;;19.41;34.85;99642.84;6838427;28;20257;-81
2022/02/09 15:59:55;;;;;;;4.93;1.90;;;;;;;17.93;39.25;99640.53;6854939;28;20231;-82
2022/02/09 16:21:52;;;;;;;9.00;4.50;;;;;;;16.39;42.97;99629.28;6849017;28;20805;-82
2022/02/09 16:25:24;;;;;;;6.80;3.93;;;;;;;15.66;44.66;99638.13;6861352;28;20342;-82
2022/02/09 16:47:17;;;;;;;5.80;4.40;;;;;;;15.11;46.27;99638.75;6853936;28;20215;-81
2022/02/09 16:50:48;;;;;;;6.20;3.80;;;;;;;15.10;45.89;99637.06;6843240;28;20237;-81
2022/02/09 16:54:25;;;;;;;8.80;4.60;;;;;;;14.81;46.18;99629.41;6838253;29;20198;-80
2022/02/09 17:19:58;;;;;;;8.13;5.97;;;;;;;13.91;49.00;99641.94;6872505;28;20236;-83
2022/02/09 17:23:19;;;;;;;9.83;4.50;;;;;;;13.67;49.04;99634.38;6871323;28;20244;-79
2022/02/09 17:26:43;;;;;;;7.07;5.47;;;;;;;12.99;50.93;99641.81;6868343;28;20201;-80
2022/02/09 17:59:25;;;;;;;9.27;5.10;;;;;;;12.02;53.05;99653.53;6868437;28;20229;-83
2022/02/09 18:02:49;;;;;;;8.77;5.03;;;;;;;12.13;52.58;99633.25;6866298;28;20252;-83
2022/02/09 18:06:17;;;;;;;6.50;5.10;;;;;;;12.15;52.27;99659.06;6866592;28;20205;-82
2022/02/09 18:09:46;;;;;;;10.97;5.00;;;;;;;11.90;52.88;99644.28;6855462;28;20205;-84
2022/02/09 18:31:36;;;;;;;9.47;5.57;;;;;;;11.38;53.99;99659.03;6865329;28;20241;-86
2022/02/09 18:39:20;;;;;;;5.67;5.00;;;;;;;11.30;52.97;99643.81;6865649;28;20673;-86
2022/02/09 18:42:57;;;;;;;8.87;4.87;;;;;;;11.62;52.78;99664.16;6864305;28;20229;-86
2022/02/09 18:46:28;;;;;;;11.77;7.33;;;;;;;10.81;54.21;99666.19;6862620;28;20212;-86
2022/02/09 18:57:43;;;;;;;9.00;6.07;;;;;;;10.58;55.65;99662.72;6867390;28;20205;-85
2022/02/09 19:05:01;;;;;;;9.83;6.17;;;;;;;11.03;54.51;99657.16;6792519;28;20266;-85
2022/02/09 19:08:38;;;;;;;7.30;4.93;;;;;;;10.89;54.29;99652.59;6867104;28;20212;-85
2022/02/09 19:16:01;;;;;;;9.70;5.40;;;;;;;10.57;55.16;99655.66;6876378;28;20190;-85
2022/02/09 19:26:57;;;;;;;6.60;5.03;;;;;;;10.38;55.46;99651.63;6869002;28;20185;-85
2022/02/09 19:30:38;;;;;;;9.40;5.47;;;;;;;9.99;57.66;99639.31;6872135;28;20189;-85
2022/02/09 19:45:37;;;;;;;7.23;5.80;;;;;;;10.57;55.72;99634.91;6863501;28;20673;-85
2022/02/09 19:49:03;;;;;;;11.13;4.80;;;;;;;10.55;55.07;99647.75;6864964;28;20201;-85
2022/02/09 19:52:38;;;;;;;7.43;5.40;;;;;;;9.71;56.76;99657.88;6865006;28;20231;-85
2022/02/09 19:56:07;;;;;;;9.70;5.00;;;;;;;10.34;56.06;99650.28;6865040;28;20212;-85
2022/02/09 19:59:32;;;;;;;9.63;5.57;;;;;;;10.07;54.78;99604.25;6866298;28;20283;-85
2022/02/09 20:02:53;;;;;;;8.40;5.50;;;;;;;10.35;54.49;99648.44;6866560;28;20264;-85
2022/02/09 20:06:15;;;;;;;8.27;4.87;;;;;;;10.35;54.18;99630.44;6866884;28;20205;-85
2022/02/09 20:09:38;;;;;;;5.83;4.67;;;;;;;10.27;53.86;99617.00;6868627;28;20217;-85
2022/02/09 20:13:00;;;;;;;10.00;6.03;;;;;;;9.95;54.56;99602.97;6867749;28;20228;-85
2022/02/09 20:16:22;;;;;;;8.83;5.43;;;;;;;10.04;54.17;99634.25;6866435;28;20259;-85
2022/02/09 20:19:53;;;;;;;9.47;6.70;;;;;;;9.78;55.67;99631.91;6866376;28;20248;-85
2022/02/09 20:23:14;;;;;;;6.53;5.33;;;;;;;9.79;55.42;99630.88;6864884;28;20225;-85
2022/02/09 20:26:37;;;;;;;5.10;4.60;;;;;;;9.75;54.83;99634.13;6864452;28;20564;-85
2022/02/09 20:29:59;;;;;;;8.37;4.80;;;;;;;8.84;56.75;99629.59;6865067;28;20208;-86
2022/02/09 20:33:26;;;;;;;12.17;7.17;;;;;;;9.52;56.33;99633.28;6868965;28;20887;-87
2022/02/09 20:36:48;;;;;;;10.73;6.87;;;;;;;9.34;55.96;99624.66;6870734;28;20193;-87
2022/02/09 20:40:14;;;;;;;9.00;6.13;;;;;;;9.45;56.87;99630.44;6871151;28;20382;-87
2022/02/09 20:43:43;;;;;;;10.43;5.33;;;;;;;9.21;55.51;99567.91;6851820;28;20659;-84
2022/02/09 20:47:05;;;;;;;8.47;5.10;;;;;;;9.14;56.55;99636.84;6846408;28;20333;-85
2022/02/09 20:50:28;;;;;;;8.07;5.00;;;;;;;8.66;56.99;99544.84;6848284;28;20194;-85
2022/02/09 20:53:50;;;;;;;9.80;5.03;;;;;;;9.75;55.47;99639.50;6867651;28;20209;-85
2022/02/09 20:57:12;;;;;;;8.33;5.10;;;;;;;9.39;55.13;99641.09;6863028;28;20194;-86
2022/02/09 21:00:40;;;;;;;6.23;5.07;;;;;;;9.01;56.05;99593.53;6864837;28;20749;-85
2022/02/09 21:04:06;;;;;;;7.30;5.03;;;;;;;9.54;55.36;99653.63;6870084;28;20266;-85
2022/02/09 21:07:36;;;;;;;6.17;4.00;;;;;;;9.62;55.07;99650.03;6871014;28;20224;-85
2022/02/09 21:11:07;;;;;;;7.03;4.40;;;;;;;9.51;54.09;99642.38;6869951;28;20609;-85
2022/02/09 21:14:52;;;;;;;5.90;4.30;;;;;;;9.07;54.31;99605.47;6855171;28;20272;-86
2022/02/09 21:18:36;;;;;;;5.50;4.87;;;;;;;9.24;54.88;99632.94;6863929;28;20689;-84
2022/02/09 21:55:24;;;;;;;5.03;4.53;;;;;;;8.17;55.84;99629.22;6872232;28;20194;-85
2022/02/09 21:58:55;;;;;;;5.20;4.70;;;;;;;8.47;56.08;99626.69;6868448;28;20340;-85
